Observation data for Plains on 11/13/2019      Previous  Date       Current Mesonet Observations  Soil Data  Daily Summary Page  Observations in Plain Language
KPPS 130600Z 21007KT M02/M09 A3019 RMK A01 T10161094  RH  055%=      5-min Rain = 0
KPPS 130605Z 21009KT M02/M10 A3018 RMK A01 T10161095  RH  055%=      5-min Rain = 0
KPPS 130610Z 21009KT M02/M10 A3018 RMK A01 T10161096  RH  054%=      5-min Rain = 0
KPPS 130615Z 21009KT M02/M10 A3018 RMK A01 T10161096  RH  054%=      5-min Rain = 0
KPPS 130620Z 21009KT M02/M10 A3018 RMK A01 T10161097  RH  054%=      5-min Rain = 0
KPPS 130625Z 21009KT M02/M10 A3017 RMK A01 T10171097  RH  054%=      5-min Rain = 0
KPPS 130630Z 21009KT M02/M10 A3017 RMK A01 T10171098  RH  054%=      5-min Rain = 0
KPPS 130635Z 21009KT M02/M10 A3017 RMK A01 T10171098  RH  054%=      5-min Rain = 0
KPPS 130640Z 21009KT M02/M10 A3017 RMK A01 T10181098  RH  054%=      5-min Rain = 0
KPPS 130645Z 21009KT M02/M10 A3016 RMK A01 T10181098  RH  054%=      5-min Rain = 0
KPPS 130650Z 22009KT M02/M10 A3016 RMK A01 T10191097  RH  055%=      5-min Rain = 0
KPPS 130655Z 21008KT M02/M10 A3016 RMK A01 T10191097  RH  055%=      5-min Rain = 0
KPPS 130700Z 22009KT M02/M10 A3016 RMK A01 T10191096  RH  055%=      5-min Rain = 0
KPPS 130705Z 22008KT M02/M10 A3016 RMK A01 T10201095  RH  056%=      5-min Rain = 0
KPPS 130710Z 21008KT M02/M09 A3015 RMK A01 T10201094  RH  056%=      5-min Rain = 0
KPPS 130715Z 21009KT M02/M09 A3015 RMK A01 T10201094  RH  057%=      5-min Rain = 0
KPPS 130720Z 21009KT M02/M09 A3015 RMK A01 T10191093  RH  057%=      5-min Rain = 0
KPPS 130725Z 21009KT M02/M09 A3015 RMK A01 T10191092  RH  057%=      5-min Rain = 0
KPPS 130730Z 22008KT M02/M09 A3015 RMK A01 T10191092  RH  057%=      5-min Rain = 0
KPPS 130735Z 22008KT M02/M09 A3014 RMK A01 T10201090  RH  058%=      5-min Rain = 0
KPPS 130740Z 21009KT M02/M09 A3014 RMK A01 T10201090  RH  059%=      5-min Rain = 0
KPPS 130745Z 21009KT M02/M09 A3015 RMK A01 T10191089  RH  059%=      5-min Rain = 0
KPPS 130750Z 21009KT M02/M09 A3014 RMK A01 T10181088  RH  059%=      5-min Rain = 0
KPPS 130755Z 21009KT M02/M09 A3014 RMK A01 T10181088  RH  059%=      5-min Rain = 0
KPPS 130800Z 21009KT M02/M09 A3014 RMK A01 T10171088  RH  058%=      5-min Rain = 0
KPPS 130805Z 21009KT M02/M09 A3014 RMK A01 T10161087  RH  058%=      5-min Rain = 0
KPPS 130810Z 22010KT M02/M09 A3014 RMK A01 T10171087  RH  058%=      5-min Rain = 0
KPPS 130815Z 22009KT M02/M09 A3013 RMK A01 T10161087  RH  059%=      5-min Rain = 0
KPPS 130820Z 22008KT M02/M09 A3013 RMK A01 T10171086  RH  059%=      5-min Rain = 0
KPPS 130825Z 23008KT M02/M09 A3013 RMK A01 T10181085  RH  060%=      5-min Rain = 0
KPPS 130830Z 22009KT M02/M09 A3013 RMK A01 T10181085  RH  060%=      5-min Rain = 0
KPPS 130835Z 22008KT M02/M08 A3013 RMK A01 T10181083  RH  061%=      5-min Rain = 0
KPPS 130840Z 22008KT M02/M08 A3012 RMK A01 T10191083  RH  061%=      5-min Rain = 0
KPPS 130845Z 21008KT M02/M08 A3012 RMK A01 T10191083  RH  061%=      5-min Rain = 0
KPPS 130850Z 22008KT M02/M08 A3012 RMK A01 T10191082  RH  062%=      5-min Rain = 0
KPPS 130855Z 22008KT M02/M08 A3012 RMK A01 T10201082  RH  063%=      5-min Rain = 0
KPPS 130900Z 22008KT M02/M08 A3011 RMK A01 T10211081  RH  063%=      5-min Rain = 0
KPPS 130905Z 22008KT M02/M08 A3012 RMK A01 T10211081  RH  063%=      5-min Rain = 0
KPPS 130910Z 22008KT M02/M08 A3011 RMK A01 T10211082  RH  063%=      5-min Rain = 0
KPPS 130915Z 22007KT M02/M08 A3011 RMK A01 T10211081  RH  063%=      5-min Rain = 0
KPPS 130920Z 22008KT M02/M08 A3011 RMK A01 T10221081  RH  064%=      5-min Rain = 0
KPPS 130925Z 22008KT M02/M08 A3011 RMK A01 T10221081  RH  064%=      5-min Rain = 0
KPPS 130930Z 21010KT M02/M08 A3011 RMK A01 T10221082  RH  064%=      5-min Rain = 0
KPPS 130935Z 21009KT M02/M08 A301 RMK A01 T10221082  RH  064%=      5-min Rain = 0
KPPS 130940Z 21010KT M02/M08 A301 RMK A01 T10221083  RH  063%=      5-min Rain = 0
KPPS 130945Z 21009KT M02/M08 A301 RMK A01 T10231083  RH  063%=      5-min Rain = 0
KPPS 130950Z 22009KT M02/M08 A301 RMK A01 T10231082  RH  064%=      5-min Rain = 0
KPPS 130955Z 22008KT M02/M08 A301 RMK A01 T10241082  RH  064%=      5-min Rain = 0
KPPS 131000Z 22008KT M02/M08 A301 RMK A01 T10241082  RH  064%=      5-min Rain = 0
KPPS 131005Z 21009KT M02/M08 A301 RMK A01 T10241082  RH  064%=      5-min Rain = 0
KPPS 131010Z 21010KT M02/M08 A301 RMK A01 T10241083  RH  064%=      5-min Rain = 0
KPPS 131015Z 21010KT M02/M08 A301 RMK A01 T10241083  RH  064%=      5-min Rain = 0
KPPS 131020Z 20010KT M02/M08 A3009 RMK A01 T10241083  RH  064%=      5-min Rain = 0
KPPS 131025Z 20010KT M02/M08 A3009 RMK A01 T10241083  RH  064%=      5-min Rain = 0
KPPS 131030Z 21010KT M02/M08 A3009 RMK A01 T10241083  RH  064%=      5-min Rain = 0
KPPS 131035Z 20010KT M02/M08 A3008 RMK A01 T10241083  RH  064%=      5-min Rain = 0
KPPS 131040Z 20009KT M03/M08 A3008 RMK A01 T10251083  RH  064%=      5-min Rain = 0
KPPS 131045Z 20010KT M03/M08 A3008 RMK A01 T10251083  RH  064%=      5-min Rain = 0
KPPS 131050Z 20010KT M02/M08 A3008 RMK A01 T10241083  RH  064%=      5-min Rain = 0
KPPS 131055Z 20010KT M02/M08 A3007 RMK A01 T10241082  RH  064%=      5-min Rain = 0
KPPS 131100Z 21010KT M02/M08 A3007 RMK A01 T10241082  RH  064%=      5-min Rain = 0
KPPS 131105Z 20009KT M02/M08 A3007 RMK A01 T10241081  RH  065%=      5-min Rain = 0
KPPS 131110Z 20009KT M02/M08 A3007 RMK A01 T10241081  RH  065%=      5-min Rain = 0
KPPS 131115Z 20009KT M02/M08 A3007 RMK A01 T10241080  RH  065%=      5-min Rain = 0
KPPS 131120Z 20010KT M02/M08 A3007 RMK A01 T10241080  RH  066%=      5-min Rain = 0
KPPS 131125Z 21010KT M02/M08 A3006 RMK A01 T10241079  RH  066%=      5-min Rain = 0
KPPS 131130Z 21009KT M02/M08 A3006 RMK A01 T10241079  RH  066%=      5-min Rain = 0
KPPS 131135Z 21008KT M03/M08 A3006 RMK A01 T10251078  RH  067%=      5-min Rain = 0
KPPS 131140Z 21008KT M03/M08 A3006 RMK A01 T10261078  RH  067%=      5-min Rain = 0
KPPS 131145Z 21009KT M03/M08 A3006 RMK A01 T10261077  RH  068%=      5-min Rain = 0
KPPS 131150Z 21008KT M03/M08 A3005 RMK A01 T10261077  RH  068%=      5-min Rain = 0
KPPS 131155Z 21008KT M03/M08 A3005 RMK A01 T10261076  RH  069%=      5-min Rain = 0
KPPS 131200Z 22008KT M03/M08 A3005 RMK A01 T10271076  RH  069%=      5-min Rain = 0
KPPS 131205Z 21009KT M03/M08 A3005 RMK A01 T10271076  RH  069%=      5-min Rain = 0
KPPS 131210Z 21008KT M03/M08 A3005 RMK A01 T10271075  RH  069%=      5-min Rain = 0
KPPS 131215Z 21008KT M03/M07 A3005 RMK A01 T10271074  RH  070%=      5-min Rain = 0
KPPS 131220Z 22008KT M03/M07 A3004 RMK A01 T10271074  RH  070%=      5-min Rain = 0
KPPS 131225Z 22007KT M03/M07 A3004 RMK A01 T10271074  RH  070%=      5-min Rain = 0
KPPS 131230Z 23007KT M03/M07 A3005 RMK A01 T10291073  RH  071%=      5-min Rain = 0
KPPS 131235Z 25007KT M03/M07 A3005 RMK A01 T10321073  RH  073%=      5-min Rain = 0
KPPS 131240Z 24007KT M04/M07 A3004 RMK A01 T10351073  RH  075%=      5-min Rain = 0
KPPS 131245Z 23008KT M04/M07 A3004 RMK A01 T10351072  RH  075%=      5-min Rain = 0
KPPS 131250Z 23008KT M04/M07 A3004 RMK A01 T10351072  RH  075%=      5-min Rain = 0
KPPS 131255Z 22008KT M03/M07 A3003 RMK A01 T10331071  RH  075%=      5-min Rain = 0
KPPS 131300Z 23008KT M03/M07 A3004 RMK A01 T10331071  RH  075%=      5-min Rain = 0
KPPS 131305Z 23008KT M03/M07 A3004 RMK A01 T10331071  RH  075%=      5-min Rain = 0
KPPS 131310Z 23007KT M03/M07 A3003 RMK A01 T10341070  RH  076%=      5-min Rain = 0
KPPS 131315Z 24007KT M03/M07 A3003 RMK A01 T10341070  RH  076%=      5-min Rain = 0
KPPS 131320Z 23007KT M03/M07 A3003 RMK A01 T10341069  RH  077%=      5-min Rain = 0
KPPS 131325Z 24008KT M03/M07 A3003 RMK A01 T10331069  RH  076%=      5-min Rain = 0
KPPS 131330Z 23008KT M03/M07 A3003 RMK A01 T10311068  RH  075%=      5-min Rain = 0
KPPS 131335Z 23008KT M03/M07 A3002 RMK A01 T10301068  RH  075%=      5-min Rain = 0
KPPS 131340Z 23007KT M03/M07 A3002 RMK A01 T10291068  RH  075%=      5-min Rain = 0
KPPS 131345Z 23008KT M03/M07 A3002 RMK A01 T10281067  RH  075%=      5-min Rain = 0
KPPS 131350Z 23008KT M03/M07 A3002 RMK A01 T10261066  RH  074%=      5-min Rain = 0
KPPS 131355Z 23009KT M02/M07 A3003 RMK A01 T10231065  RH  073%=      5-min Rain = 0
KPPS 131400Z 23009KT M02/M06 A3002 RMK A01 T10211064  RH  072%=      5-min Rain = 0
KPPS 131405Z 23009KT M02/M06 A3003 RMK A01 T10201064  RH  072%=      5-min Rain = 0
KPPS 131410Z 23009KT M02/M06 A3002 RMK A01 T10191063  RH  072%=      5-min Rain = 0
KPPS 131415Z 23010KT M02/M06 A3002 RMK A01 T10181062  RH  072%=      5-min Rain = 0
KPPS 131420Z 22009KT M02/M06 A3002 RMK A01 T10161061  RH  072%=      5-min Rain = 0
KPPS 131425Z 22009KT M01/M06 A3002 RMK A01 T10131059  RH  071%=      5-min Rain = 0
KPPS 131430Z 23009KT M01/M06 A3002 RMK A01 T10111057  RH  071%=      5-min Rain = 0
KPPS 131435Z 23009KT M01/M06 A3002 RMK A01 T10051055  RH  070%=      5-min Rain = 0
KPPS 131440Z 23009KT M00/M05 A3002 RMK A01 T10021053  RH  068%=      5-min Rain = 0
KPPS 131445Z 23010KT 00/M05 A3002 RMK A01 T00021051  RH  067%=      5-min Rain = 0
KPPS 131450Z 23011G16KT 01/M05 A3002 RMK A01 T00061050  RH  066%=      5-min Rain = 0
KPPS 131455Z 22012G17KT 01/M05 A3002 RMK A01 T00101049  RH  065%=      5-min Rain = 0
KPPS 131500Z 22013G18KT 01/M05 A3001 RMK A01 T00141046  RH  064%=      5-min Rain = 0
KPPS 131505Z 22013G18KT 02/M05 A3002 RMK A01 T00181045  RH  063%=      5-min Rain = 0
KPPS 131510Z 22014KT 02/M04 A3002 RMK A01 T00191044  RH  063%=      5-min Rain = 0
KPPS 131515Z 22014G19KT 02/M04 A3001 RMK A01 T00191044  RH  063%=      5-min Rain = 0
KPPS 131520Z 22012G17KT 02/M04 A3001 RMK A01 T00201042  RH  064%=      5-min Rain = 0
KPPS 131525Z 22013G18KT 03/M04 A3001 RMK A01 T00271039  RH  062%=      5-min Rain = 0
KPPS 131530Z 22012G18KT 03/M04 A30 RMK A01 T00321037  RH  061%=      5-min Rain = 0
KPPS 131535Z 22015KT 04/M04 A30 RMK A01 T00361036  RH  059%=      5-min Rain = 0
KPPS 131540Z 23012G17KT 04/M03 A30 RMK A01 T00401034  RH  059%=      5-min Rain = 0
KPPS 131545Z 22012KT 05/M03 A30 RMK A01 T00471031  RH  057%=      5-min Rain = 0
KPPS 131550Z 22014KT 05/M03 A30 RMK A01 T00491030  RH  057%=      5-min Rain = 0
KPPS 131555Z 21011KT 05/M03 A30 RMK A01 T00521029  RH  056%=      5-min Rain = 0
KPPS 131600Z 21014G19KT 06/M03 A30 RMK A01 T00581027  RH  055%=      5-min Rain = 0
KPPS 131605Z 22013KT 06/M03 A30 RMK A01 T00601026  RH  054%=      5-min Rain = 0
KPPS 131610Z 21013KT 06/M03 A30 RMK A01 T00641025  RH  053%=      5-min Rain = 0
KPPS 131615Z 22013KT 07/M03 A30 RMK A01 T00671025  RH  053%=      5-min Rain = 0
KPPS 131620Z 22012KT 07/M02 A30 RMK A01 T00701024  RH  051%=      5-min Rain = 0
KPPS 131625Z 22011KT 07/M02 A30 RMK A01 T00741023  RH  050%=      5-min Rain = 0
KPPS 131630Z 22011KT 08/M02 A2999 RMK A01 T00781022  RH  050%=      5-min Rain = 0
KPPS 131635Z 22012KT 08/M02 A30 RMK A01 T00801022  RH  049%=      5-min Rain = 0
KPPS 131640Z 22011G16KT 08/M02 A2999 RMK A01 T00831021  RH  048%=      5-min Rain = 0
KPPS 131645Z 22010KT 08/M02 A2999 RMK A01 T00841019  RH  048%=      5-min Rain = 0
KPPS 131650Z 22010KT 09/M02 A2999 RMK A01 T00881019  RH  047%=      5-min Rain = 0
KPPS 131655Z 23010KT 09/M02 A2999 RMK A01 T00921018  RH  047%=      5-min Rain = 0
KPPS 131700Z 23011KT 10/M02 A2998 RMK A01 T00951017  RH  046%=      5-min Rain = 0
KPPS 131705Z 24011KT 09/M02 A2998 RMK A01 T00941018  RH  046%=      5-min Rain = 0
KPPS 131710Z 24011KT 10/M02 A2998 RMK A01 T00961017  RH  046%=      5-min Rain = 0
KPPS 131715Z 24013KT 10/M02 A2998 RMK A01 T00971017  RH  045%=      5-min Rain = 0
KPPS 131720Z 22011KT 10/M02 A2998 RMK A01 T01011016  RH  045%=      5-min Rain = 0
KPPS 131725Z 23012KT 10/M02 A2998 RMK A01 T01031015  RH  044%=      5-min Rain = 0
KPPS 131730Z 23011KT 11/M01 A2998 RMK A01 T01071014  RH  043%=      5-min Rain = 0
KPPS 131735Z 22011KT 11/M01 A2997 RMK A01 T01091013  RH  043%=      5-min Rain = 0
KPPS 131740Z 22010KT 12/M01 A2997 RMK A01 T01161012  RH  041%=      5-min Rain = 0
KPPS 131745Z 23009KT 12/M01 A2997 RMK A01 T01211010  RH  041%=      5-min Rain = 0
KPPS 131750Z 22009KT 13/M01 A2997 RMK A01 T01251009  RH  040%=      5-min Rain = 0
KPPS 131755Z 22010KT 13/M01 A2997 RMK A01 T01281009  RH  039%=      5-min Rain = 0
KPPS 131800Z 22009KT 13/M01 A2996 RMK A01 T01321009  RH  038%=      5-min Rain = 0
KPPS 131805Z 22008G13KT 14/M01 A2996 RMK A01 T01371006  RH  038%=      5-min Rain = 0
KPPS 131810Z 21010KT 14/M01 A2996 RMK A01 T01371009  RH  037%=      5-min Rain = 0
KPPS 131815Z 21010KT 14/M01 A2995 RMK A01 T01381008  RH  037%=      5-min Rain = 0
KPPS 131820Z 20009KT 14/M01 A2995 RMK A01 T01421007  RH  036%=      5-min Rain = 0
KPPS 131825Z 21008KT 15/M01 A2995 RMK A01 T01451007  RH  036%=      5-min Rain = 0
KPPS 131830Z 20010G15KT 15/M01 A2995 RMK A01 T01471007  RH  035%=      5-min Rain = 0
KPPS 131835Z 21010KT 15/M01 A2994 RMK A01 T01471006  RH  035%=      5-min Rain = 0
KPPS 131840Z 22009KT 15/M01 A2994 RMK A01 T01511005  RH  035%=      5-min Rain = 0
KPPS 131845Z 20010G15KT 15/M01 A2993 RMK A01 T01531007  RH  034%=      5-min Rain = 0
KPPS 131850Z 20010KT 16/M01 A2993 RMK A01 T01551006  RH  033%=      5-min Rain = 0
KPPS 131855Z 20008KT 16/M00 A2993 RMK A01 T01601003  RH  033%=      5-min Rain = 0
KPPS 131900Z 21008KT 16/M01 A2993 RMK A01 T01601005  RH  033%=      5-min Rain = 0
KPPS 131905Z 21008KT 16/M01 A2993 RMK A01 T01621005  RH  032%=      5-min Rain = 0
KPPS 131910Z 19009KT 16/M00 A2992 RMK A01 T01641003  RH  033%=      5-min Rain = 0
KPPS 131915Z 20010KT 16/M00 A2992 RMK A01 T01641003  RH  033%=      5-min Rain = 0
KPPS 131920Z 20009KT 17/M00 A2992 RMK A01 T01651003  RH  032%=      5-min Rain = 0
KPPS 131925Z 20009KT 17/M00 A2992 RMK A01 T01681004  RH  031%=      5-min Rain = 0
KPPS 131930Z 20009KT 17/M00 A2991 RMK A01 T01701002  RH  032%=      5-min Rain = 0
KPPS 131935Z 22009KT 17/M00 A2991 RMK A01 T01711002  RH  031%=      5-min Rain = 0
KPPS 131940Z 21010KT 17/M00 A2991 RMK A01 T01701003  RH  031%=      5-min Rain = 0
KPPS 131945Z 20010KT 18/M00 A299 RMK A01 T01751002  RH  031%=      5-min Rain = 0
KPPS 131950Z 20009KT 18/00 A299 RMK A01 T01780001  RH  031%=      5-min Rain = 0
KPPS 131955Z 20010KT 18/M00 A299 RMK A01 T01761001  RH  031%=      5-min Rain = 0
KPPS 132000Z 21011KT 18/M00 A2989 RMK A01 T01771001  RH  030%=      5-min Rain = 0
KPPS 132005Z 20008KT 18/M00 A2989 RMK A01 T01801001  RH  030%=      5-min Rain = 0
KPPS 132010Z 20010KT 18/00 A2989 RMK A01 T018200-0  RH  029%=      5-min Rain = 0
KPPS 132015Z 19011KT 18/00 A2988 RMK A01 T01820001  RH  030%=      5-min Rain = 0
KPPS 132020Z 19010KT 18/00 A2988 RMK A01 T01820002  RH  030%=      5-min Rain = 0
KPPS 132025Z 20011KT 18/00 A2988 RMK A01 T01810001  RH  030%=      5-min Rain = 0
KPPS 132030Z 20010G15KT 18/00 A2988 RMK A01 T01820002  RH  030%=      5-min Rain = 0
KPPS 132035Z 19010KT 18/00 A2988 RMK A01 T01830002  RH  030%=      5-min Rain = 0
KPPS 132040Z 19011KT 19/00 A2988 RMK A01 T01860002  RH  029%=      5-min Rain = 0
KPPS 132045Z 20010KT 19/00 A2988 RMK A01 T01880002  RH  029%=      5-min Rain = 0
KPPS 132050Z 19010KT 19/00 A2988 RMK A01 T018600-0  RH  029%=      5-min Rain = 0
KPPS 132055Z 20010KT 19/00 A2988 RMK A01 T018600-0  RH  029%=      5-min Rain = 0
KPPS 132100Z 20010KT 19/00 A2988 RMK A01 T01890002  RH  029%=      5-min Rain = 0
KPPS 132105Z 19010KT 19/00 A2988 RMK A01 T01870001  RH  029%=      5-min Rain = 0
KPPS 132110Z 21010G15KT 19/00 A2988 RMK A01 T01870001  RH  029%=      5-min Rain = 0
KPPS 132115Z 20010KT 19/00 A2988 RMK A01 T01870000  RH  029%=      5-min Rain = 0
KPPS 132120Z 21010KT 19/00 A2988 RMK A01 T018600-0  RH  029%=      5-min Rain = 0
KPPS 132125Z 19010KT 19/00 A2988 RMK A01 T018600-0  RH  029%=      5-min Rain = 0
KPPS 132130Z 20010KT 19/00 A2988 RMK A01 T01870003  RH  029%=      5-min Rain = 0
KPPS 132135Z 20009KT 19/00 A2989 RMK A01 T01860002  RH  029%=      5-min Rain = 0
KPPS 132140Z 19010KT 19/00 A2988 RMK A01 T01850004  RH  030%=      5-min Rain = 0
KPPS 132145Z 19010G15KT 19/01 A2988 RMK A01 T01860005  RH  030%=      5-min Rain = 0
KPPS 132150Z 20012KT 18/00 A2988 RMK A01 T01820004  RH  031%=      5-min Rain = 0
KPPS 132155Z 20012KT 18/00 A2988 RMK A01 T01780004  RH  031%=      5-min Rain = 0
KPPS 132200Z 19010KT 18/00 A2988 RMK A01 T01760004  RH  032%=      5-min Rain = 0
KPPS 132205Z 20010KT 18/00 A2988 RMK A01 T01770004  RH  031%=      5-min Rain = 0
KPPS 132210Z 19009KT 18/01 A2988 RMK A01 T01780005  RH  032%=      5-min Rain = 0
KPPS 132215Z 19009KT 18/01 A2988 RMK A01 T01790005  RH  031%=      5-min Rain = 0
KPPS 132220Z 19011KT 18/00 A2988 RMK A01 T01770004  RH  032%=      5-min Rain = 0
KPPS 132225Z 19011KT 18/00 A2988 RMK A01 T01750004  RH  032%=      5-min Rain = 0
KPPS 132230Z 19009KT 18/01 A2988 RMK A01 T01750005  RH  032%=      5-min Rain = 0
KPPS 132235Z 19009KT 17/00 A2988 RMK A01 T01740003  RH  032%=      5-min Rain = 0
KPPS 132240Z 20007KT 18/01 A2988 RMK A01 T01750005  RH  032%=      5-min Rain = 0
KPPS 132245Z 20009KT 18/00 A2989 RMK A01 T01750004  RH  032%=      5-min Rain = 0
KPPS 132250Z 19009KT 17/00 A2989 RMK A01 T01730003  RH  032%=      5-min Rain = 0
KPPS 132255Z 20009KT 17/00 A2989 RMK A01 T01710003  RH  032%=      5-min Rain = 0
KPPS 132300Z 19009KT 17/00 A2989 RMK A01 T01690003  RH  033%=      5-min Rain = 0
KPPS 132305Z 19009KT 17/00 A2989 RMK A01 T01680003  RH  033%=      5-min Rain = 0
KPPS 132310Z 19009KT 17/00 A2989 RMK A01 T01650003  RH  034%=      5-min Rain = 0
KPPS 132315Z 19008KT 16/00 A2989 RMK A01 T01620004  RH  035%=      5-min Rain = 0
KPPS 132320Z 19008KT 16/00 A2989 RMK A01 T01590004  RH  035%=      5-min Rain = 0
KPPS 132325Z 18007KT 16/01 A2989 RMK A01 T01550005  RH  036%=      5-min Rain = 0
KPPS 132330Z 18008KT 15/01 A2989 RMK A01 T01510005  RH  037%=      5-min Rain = 0
KPPS 132335Z 18007KT 15/01 A299 RMK A01 T01480005  RH  038%=      5-min Rain = 0
KPPS 132340Z 16006KT 14/01 A299 RMK A01 T01440005  RH  039%=      5-min Rain = 0
KPPS 132345Z 16007KT 14/01 A299 RMK A01 T01390005  RH  040%=      5-min Rain = 0
KPPS 132350Z 16007KT 13/01 A2991 RMK A01 T01340005  RH  042%=      5-min Rain = 0
KPPS 132355Z 16008KT 13/00 A2991 RMK A01 T01300004  RH  043%=      5-min Rain = 0
KPPS 140000Z 16010KT 13/00 A2991 RMK A01 T01270004  RH  043%=      5-min Rain = 0
KPPS 140005Z 17010KT 13/00 A2991 RMK A01 T01310003  RH  042%=      5-min Rain = 0
KPPS 140010Z 17013KT 13/01 A2991 RMK A01 T01320005  RH  043%=      5-min Rain = 0
KPPS 140015Z 17011KT 12/01 A2991 RMK A01 T01240007  RH  045%=      5-min Rain = 0
KPPS 140020Z 17010KT 12/01 A2992 RMK A01 T01170009  RH  048%=      5-min Rain = 0
KPPS 140025Z 16009KT 11/01 A2992 RMK A01 T01130011  RH  050%=      5-min Rain = 0
KPPS 140030Z 16009KT 11/01 A2992 RMK A01 T01100012  RH  052%=      5-min Rain = 0
KPPS 140035Z 16009KT 11/01 A2993 RMK A01 T01070013  RH  053%=      5-min Rain = 0
KPPS 140040Z 16008KT 11/01 A2993 RMK A01 T01050013  RH  053%=      5-min Rain = 0
KPPS 140045Z 16008KT 10/01 A2993 RMK A01 T01020012  RH  055%=      5-min Rain = 0
KPPS 140050Z 16009KT 10/01 A2993 RMK A01 T01000013  RH  055%=      5-min Rain = 0
KPPS 140055Z 17009KT 10/01 A2993 RMK A01 T01000013  RH  055%=      5-min Rain = 0
KPPS 140100Z 16008KT 10/01 A2994 RMK A01 T00970012  RH  056%=      5-min Rain = 0
KPPS 140105Z 16007KT 09/01 A2994 RMK A01 T00940012  RH  057%=      5-min Rain = 0
KPPS 140110Z 15007KT 09/01 A2994 RMK A01 T00920011  RH  058%=      5-min Rain = 0
KPPS 140115Z 15007KT 08/01 A2994 RMK A01 T00830010  RH  061%=      5-min Rain = 0
KPPS 140120Z 15007KT 08/01 A2995 RMK A01 T00810011  RH  062%=      5-min Rain = 0
KPPS 140125Z 14008KT 08/01 A2995 RMK A01 T00750009  RH  064%=      5-min Rain = 0
KPPS 140130Z 15007KT 07/01 A2995 RMK A01 T00720011  RH  066%=      5-min Rain = 0
KPPS 140135Z 14007KT 07/01 A2996 RMK A01 T00700010  RH  066%=      5-min Rain = 0
KPPS 140140Z 15007KT 07/01 A2996 RMK A01 T00730012  RH  066%=      5-min Rain = 0
KPPS 140145Z 14008KT 08/01 A2996 RMK A01 T00760012  RH  065%=      5-min Rain = 0
KPPS 140150Z 14005G10KT 08/01 A2997 RMK A01 T00810013  RH  063%=      5-min Rain = 0
KPPS 140155Z 15006KT 07/01 A2997 RMK A01 T00720010  RH  066%=      5-min Rain = 0
KPPS 140200Z 15004KT 07/01 A2997 RMK A01 T00730011  RH  066%=      5-min Rain = 0
KPPS 140205Z 12005KT 07/01 A2998 RMK A01 T00680010  RH  067%=      5-min Rain = 0
KPPS 140210Z 15007KT 08/01 A2998 RMK A01 T00750013  RH  066%=      5-min Rain = 0
KPPS 140215Z 15006KT 07/01 A2999 RMK A01 T00740012  RH  066%=      5-min Rain = 0
KPPS 140220Z 14007KT 07/01 A2999 RMK A01 T00680010  RH  067%=      5-min Rain = 0
KPPS 140225Z 15006KT 06/01 A2999 RMK A01 T00620009  RH  070%=      5-min Rain = 0
KPPS 140230Z 18007KT 06/01 A2999 RMK A01 T00620011  RH  071%=      5-min Rain = 0
KPPS 140235Z 19007KT 07/01 A2999 RMK A01 T00650013  RH  070%=      5-min Rain = 0
KPPS 140240Z 15004KT 06/01 A2999 RMK A01 T00600010  RH  071%=      5-min Rain = 0
KPPS 140245Z 17005KT 06/01 A2999 RMK A01 T00560010  RH  073%=      5-min Rain = 0
KPPS 140250Z 16004KT 05/01 A30 RMK A01 T00510009  RH  075%=      5-min Rain = 0
KPPS 140255Z 17004KT 06/01 A30 RMK A01 T00570013  RH  074%=      5-min Rain = 0
KPPS 140300Z 16004KT 06/01 A30 RMK A01 T00590012  RH  073%=      5-min Rain = 0
KPPS 140305Z 15003KT 06/01 A3001 RMK A01 T00560011  RH  074%=      5-min Rain = 0
KPPS 140310Z 17002KT 06/01 A3001 RMK A01 T00560012  RH  074%=      5-min Rain = 0
KPPS 140315Z 17002KT 05/01 A3001 RMK A01 T00540011  RH  075%=      5-min Rain = 0
KPPS 140320Z 20003KT 06/01 A3002 RMK A01 T00550013  RH  076%=      5-min Rain = 0
KPPS 140325Z 20002KT 06/01 A3002 RMK A01 T00550011  RH  074%=      5-min Rain = 0
KPPS 140330Z 21001KT 05/01 A3002 RMK A01 T00530011  RH  076%=      5-min Rain = 0
KPPS 140335Z 26001KT 04/01 A3002 RMK A01 T00440006  RH  077%=      5-min Rain = 0
KPPS 140340Z 27001KT 05/01 A3002 RMK A01 T00480013  RH  079%=      5-min Rain = 0
KPPS 140345Z 27000KT 05/01 A3002 RMK A01 T00500010  RH  077%=      5-min Rain = 0
KPPS 140350Z 35005KT 05/01 A3003 RMK A01 T00490010  RH  077%=      5-min Rain = 0
KPPS 140355Z 35006KT 04/01 A3003 RMK A01 T00370007  RH  081%=      5-min Rain = 0
KPPS 140400Z 35007KT 03/01 A3003 RMK A01 T00310005  RH  084%=      5-min Rain = 0
KPPS 140405Z 35007KT 03/00 A3003 RMK A01 T00270004  RH  086%=      5-min Rain = 0
KPPS 140410Z 35007KT 02/00 A3004 RMK A01 T00240004  RH  087%=      5-min Rain = 0
KPPS 140415Z 36005KT 03/01 A3004 RMK A01 T00280007  RH  087%=      5-min Rain = 0
KPPS 140420Z 01005KT 03/01 A3004 RMK A01 T00320009  RH  086%=      5-min Rain = 0
KPPS 140425Z 01005KT 04/01 A3004 RMK A01 T00370010  RH  084%=      5-min Rain = 0
KPPS 140430Z 01006KT 04/01 A3004 RMK A01 T00380010  RH  083%=      5-min Rain = 0
KPPS 140435Z 01007KT 04/01 A3004 RMK A01 T00400009  RH  081%=      5-min Rain = 0
KPPS 140440Z 01006KT 03/01 A3005 RMK A01 T00320005  RH  083%=      5-min Rain = 0
KPPS 140445Z 00006KT 04/01 A3005 RMK A01 T00350006  RH  082%=      5-min Rain = 0
KPPS 140450Z 01006KT 03/00 A3005 RMK A01 T00310004  RH  084%=      5-min Rain = 0
KPPS 140455Z 00007KT 03/00 A3005 RMK A01 T00300004  RH  084%=      5-min Rain = 0
KPPS 140500Z 01008KT 03/01 A3005 RMK A01 T00300005  RH  084%=      5-min Rain = 0
KPPS 140505Z 00009KT 03/00 A3005 RMK A01 T00280002  RH  084%=      5-min Rain = 0
KPPS 140510Z 01009KT 03/00 A3006 RMK A01 T00280004  RH  085%=      5-min Rain = 0
KPPS 140515Z 01009KT 04/01 A3006 RMK A01 T00350005  RH  082%=      5-min Rain = 0
KPPS 140520Z 01007KT 04/01 A3006 RMK A01 T00360006  RH  082%=      5-min Rain = 0
KPPS 140525Z 00007KT 04/01 A3006 RMK A01 T00410006  RH  079%=      5-min Rain = 0
KPPS 140530Z 00008KT 03/00 A3006 RMK A01 T00320002  RH  082%=      5-min Rain = 0
KPPS 140535Z 00009KT 03/00 A3006 RMK A01 T00290003  RH  084%=      5-min Rain = 0
KPPS 140540Z 36008KT 03/00 A3007 RMK A01 T00300002  RH  083%=      5-min Rain = 0
KPPS 140545Z 36007KT 03/00 A3007 RMK A01 T002700-0  RH  083%=      5-min Rain = 0
KPPS 140550Z 35008KT 03/00 A3007 RMK A01 T002500-0  RH  084%=      5-min Rain = 0
KPPS 140555Z 35008KT 03/00 A3007 RMK A01 T002600-0  RH  084%=      5-min Rain = 0

Page generated in 0.0092 seconds.